Аэропорт: Орск. Орск

ICAO: UWOR

METAR:
2019/05/26 14:00
UWOR 261400Z 19006MPS CAVOK 23/M04 Q1020 R25/CLRD65 NOSIG RMK QFE741/0988
METAR:
2015/12/20 18:00
TAF UWOR 201700Z 2018/2103 15010G15MPS 2000 SN BLSN OVC007 
      TEMPO 2018/2024 19015MPS 1200 SN BLSN OVC005